Time;durP1;ratioP1;P1;durP2;ratioP2;P2;SDS_P1;SDS_P2;PMS_P1;PMS_P2;Temp;Humidity;BMP_temperature;BMP_pressure;BME280_temperature;BME280_humidity;BME280_pressure;Samples;Min_cycle;Max_cycle;Signal;HPM_P1;HPM_P2
2023/09/10 00:02:25;;;;;;;9.93;9.13;;;32.20;48.70;;;;;;5021935;28;20439;-79
2023/09/10 00:04:53;;;;;;;10.67;9.77;;;32.20;48.80;;;;;;5033828;28;20562;-78
2023/09/10 00:07:22;;;;;;;9.77;8.93;;;32.20;48.70;;;;;;5034139;28;20446;-77
2023/09/10 00:09:50;;;;;;;9.77;9.07;;;32.10;48.80;;;;;;5033777;28;20435;-75
2023/09/10 00:12:19;;;;;;;9.63;8.83;;;32.10;48.80;;;;;;5033766;28;20534;-77
2023/09/10 00:14:47;;;;;;;9.20;8.50;;;32.10;49.00;;;;;;5034104;28;20431;-77
2023/09/10 00:17:15;;;;;;;9.13;8.43;;;32.10;48.90;;;;;;5033695;28;20510;-78
2023/09/10 00:19:43;;;;;;;10.00;9.20;;;32.00;48.90;;;;;;5033773;28;20435;-77
2023/09/10 00:22:11;;;;;;;9.33;8.63;;;32.00;48.90;;;;;;5033803;28;20511;-80
2023/09/10 00:24:39;;;;;;;8.83;8.13;;;31.90;49.00;;;;;;5033645;28;20554;-78
2023/09/10 00:27:07;;;;;;;8.70;8.00;;;31.90;49.10;;;;;;5033633;28;20440;-78
2023/09/10 00:29:36;;;;;;;9.30;8.60;;;31.90;49.10;;;;;;5033810;28;20489;-80
2023/09/10 00:32:04;;;;;;;9.00;8.30;;;31.80;49.10;;;;;;5033607;28;21061;-77
2023/09/10 00:34:33;;;;;;;10.00;9.20;;;31.80;49.20;;;;;;5033283;28;20431;-80
2023/09/10 00:37:01;;;;;;;9.33;8.57;;;31.80;49.30;;;;;;5033364;28;20436;-77
2023/09/10 00:39:29;;;;;;;8.87;8.13;;;31.80;49.30;;;;;;5033633;28;20470;-78
2023/09/10 00:41:57;;;;;;;9.30;8.60;;;31.80;49.30;;;;;;5033151;28;20535;-80
2023/09/10 00:44:25;;;;;;;12.00;8.27;;;31.70;49.20;;;;;;5033093;28;20939;-78
2023/09/10 00:46:54;;;;;;;8.53;7.83;;;31.70;49.40;;;;;;5033835;28;20503;-77
2023/09/10 00:49:22;;;;;;;8.73;8.13;;;31.70;49.40;;;;;;5033480;28;20479;-77
2023/09/10 00:51:50;;;;;;;8.50;7.80;;;31.60;49.30;;;;;;5033360;28;20562;-78
2023/09/10 00:54:18;;;;;;;9.10;8.30;;;31.60;49.40;;;;;;5032649;28;20439;-78
2023/09/10 00:56:46;;;;;;;8.47;7.87;;;31.60;49.50;;;;;;5033087;28;20501;-78
2023/09/10 00:59:14;;;;;;;9.20;8.50;;;31.60;49.40;;;;;;5032802;28;20410;-81
2023/09/10 01:01:42;;;;;;;8.93;8.20;;;31.50;49.60;;;;;;5034295;28;20437;-80
2023/09/10 01:04:11;;;;;;;9.50;8.80;;;31.50;49.60;;;;;;5035485;28;20439;-77
2023/09/10 01:06:40;;;;;;;8.93;8.27;;;31.40;49.70;;;;;;5040602;28;20533;-76
2023/09/10 01:09:08;;;;;;;8.70;8.00;;;31.40;49.60;;;;;;5034797;28;20534;-77
2023/09/10 01:11:39;;;;;;;8.70;8.00;;;31.30;49.70;;;;;;5038786;28;20469;-78
2023/09/10 01:14:10;;;;;;;8.73;8.10;;;31.30;49.70;;;;;;5040786;28;20416;-78
2023/09/10 01:16:43;;;;;;;8.33;7.73;;;31.30;49.70;;;;;;5039898;28;20431;-78
2023/09/10 01:19:26;;;;;;;9.03;8.23;;;31.30;49.80;;;;;;5036470;28;20436;-77
2023/09/10 01:21:56;;;;;;;8.83;8.13;;;31.20;49.80;;;;;;5038347;28;20490;-79
2023/09/10 01:24:25;;;;;;;9.00;8.30;;;31.20;49.80;;;;;;5037586;28;20777;-77
2023/09/10 01:26:58;;;;;;;9.37;8.53;;;31.20;49.90;;;;;;5036047;28;20475;-80
2023/09/10 01:29:26;;;;;;;9.00;8.30;;;31.20;49.80;;;;;;5037227;28;20571;-78
2023/09/10 01:31:57;;;;;;;9.13;8.43;;;31.20;49.80;;;;;;5041745;28;20475;-79
2023/09/10 01:34:26;;;;;;;8.57;7.87;;;31.20;49.90;;;;;;5037699;28;20424;-77
2023/09/10 01:36:59;;;;;;;8.13;7.53;;;31.10;49.90;;;;;;5033582;28;20431;-76
2023/09/10 01:39:36;;;;;;;9.27;8.47;;;31.10;50.00;;;;;;5032705;28;20535;-77
2023/09/10 01:42:05;;;;;;;8.73;8.03;;;31.00;50.00;;;;;;5032850;28;20562;-77
2023/09/10 01:44:33;;;;;;;8.80;8.10;;;31.00;50.00;;;;;;5032253;28;20534;-77
2023/09/10 01:47:02;;;;;;;8.10;7.50;;;31.00;50.10;;;;;;5032244;28;20475;-77
2023/09/10 01:49:29;;;;;;;8.80;8.10;;;31.00;50.10;;;;;;5031885;28;20435;-76
2023/09/10 01:51:58;;;;;;;9.40;8.70;;;31.00;50.20;;;;;;5031945;28;20502;-77
2023/09/10 01:54:26;;;;;;;9.20;8.50;;;31.00;50.20;;;;;;5032120;28;20496;-77
2023/09/10 01:56:55;;;;;;;8.90;8.20;;;30.90;50.10;;;;;;5031865;28;20439;-79
2023/09/10 01:59:25;;;;;;;8.60;7.80;;;30.90;50.10;;;;;;5032225;28;20562;-76
2023/09/10 02:01:53;;;;;;;18.23;15.50;;;30.90;50.20;;;;;;5031992;28;20451;-76
2023/09/10 02:04:22;;;;;;;19.90;17.80;;;30.90;50.30;;;;;;5031450;28;20469;-78
2023/09/10 02:06:51;;;;;;;20.20;18.10;;;30.80;50.40;;;;;;5031896;28;20506;-77
2023/09/10 02:09:19;;;;;;;21.03;18.83;;;30.80;50.40;;;;;;5031832;28;20466;-77
2023/09/10 02:11:48;;;;;;;20.97;18.77;;;30.80;50.40;;;;;;5031943;28;20546;-77
2023/09/10 02:14:16;;;;;;;19.53;17.43;;;30.80;50.40;;;;;;5032010;28;20447;-77
2023/09/10 02:16:46;;;;;;;21.40;18.80;;;30.70;50.50;;;;;;5032328;28;20467;-76
2023/09/10 02:19:14;;;;;;;20.17;18.00;;;30.70;50.40;;;;;;5031753;28;20478;-76
2023/09/10 02:21:43;;;;;;;21.27;18.77;;;30.70;50.50;;;;;;5031642;28;20542;-77
2023/09/10 02:24:11;;;;;;;19.40;17.30;;;30.70;50.60;;;;;;5031376;28;20457;-76
2023/09/10 02:26:39;;;;;;;20.57;18.43;;;30.70;50.60;;;;;;5031803;28;20479;-81
2023/09/10 02:29:08;;;;;;;19.50;17.50;;;30.70;50.30;;;;;;5032026;28;20448;-77
2023/09/10 02:31:36;;;;;;;20.70;18.50;;;30.60;50.60;;;;;;5031775;28;20463;-77
2023/09/10 02:34:08;;;;;;;19.80;17.70;;;30.60;50.60;;;;;;5031814;28;20438;-77
2023/09/10 02:36:37;;;;;;;20.07;18.03;;;30.60;50.50;;;;;;5031068;28;20474;-76
2023/09/10 02:39:06;;;;;;;20.67;18.13;;;30.50;50.60;;;;;;5031549;28;20528;-77
2023/09/10 02:41:36;;;;;;;21.13;18.93;;;30.50;50.60;;;;;;5031228;28;20450;-76
2023/09/10 02:44:05;;;;;;;18.57;16.67;;;30.50;50.60;;;;;;5031492;28;20443;-76
2023/09/10 02:46:34;;;;;;;19.77;17.67;;;30.50;50.80;;;;;;5031488;28;20468;-78
2023/09/10 02:49:04;;;;;;;19.00;17.10;;;30.50;50.80;;;;;;5031273;28;20515;-78
2023/09/10 02:51:35;;;;;;;19.77;17.30;;;30.50;50.70;;;;;;5031593;28;20449;-80
2023/09/10 02:54:04;;;;;;;18.37;16.47;;;30.40;50.70;;;;;;5031566;28;20410;-75
2023/09/10 02:56:33;;;;;;;17.63;15.83;;;30.40;50.90;;;;;;5031783;28;20448;-79
2023/09/10 02:59:02;;;;;;;19.13;17.13;;;30.40;50.80;;;;;;5031066;28;20447;-79
2023/09/10 03:01:31;;;;;;;17.20;15.40;;;30.40;51.00;;;;;;5031625;28;20467;-77
2023/09/10 03:03:59;;;;;;;17.83;15.93;;;30.40;50.90;;;;;;5031068;28;20451;-76
2023/09/10 03:06:27;;;;;;;16.57;14.97;;;30.40;50.90;;;;;;5031280;28;20446;-76
2023/09/10 03:08:57;;;;;;;17.87;16.03;;;30.30;50.90;;;;;;5031239;28;20492;-80
2023/09/10 03:11:25;;;;;;;18.00;16.10;;;30.30;50.90;;;;;;5030842;28;20534;-77
2023/09/10 03:13:53;;;;;;;17.57;15.80;;;30.30;51.00;;;;;;5030605;28;20527;-77
2023/09/10 03:16:24;;;;;;;16.50;14.90;;;30.30;51.00;;;;;;5031214;28;20464;-76
2023/09/10 03:18:52;;;;;;;16.20;14.60;;;30.20;51.00;;;;;;5031080;28;20474;-77
2023/09/10 03:21:21;;;;;;;16.60;14.90;;;30.20;51.10;;;;;;5030899;28;20542;-77
2023/09/10 03:23:49;;;;;;;17.67;15.83;;;30.20;51.10;;;;;;5031417;28;20611;-76
2023/09/10 03:26:18;;;;;;;17.17;15.37;;;30.20;51.00;;;;;;5031363;28;20491;-77
2023/09/10 03:28:47;;;;;;;15.90;14.30;;;30.20;51.20;;;;;;5032833;28;20453;-80
2023/09/10 03:31:15;;;;;;;16.50;14.40;;;30.20;51.00;;;;;;5035005;28;20551;-76
2023/09/10 03:33:43;;;;;;;16.00;14.40;;;30.20;51.00;;;;;;5034892;28;20465;-77
2023/09/10 03:36:12;;;;;;;16.43;14.73;;;30.20;51.10;;;;;;5034805;28;20447;-78
2023/09/10 03:38:41;;;;;;;14.90;13.50;;;30.20;51.10;;;;;;5035226;28;20421;-76
2023/09/10 03:41:10;;;;;;;16.30;14.60;;;30.20;51.20;;;;;;5035762;28;20450;-75
2023/09/10 03:43:41;;;;;;;15.47;13.90;;;30.20;51.10;;;;;;5034975;28;20422;-76
2023/09/10 03:46:10;;;;;;;15.33;13.80;;;30.20;51.20;;;;;;5034764;28;20423;-74
2023/09/10 03:48:39;;;;;;;15.20;13.67;;;30.10;51.00;;;;;;5034663;28;20514;-77
2023/09/10 03:51:09;;;;;;;14.37;12.97;;;30.10;51.20;;;;;;5034045;28;20442;-77
2023/09/10 03:53:39;;;;;;;15.17;13.67;;;30.10;51.20;;;;;;5034282;28;20786;-76
2023/09/10 03:56:09;;;;;;;14.87;13.37;;;30.10;51.20;;;;;;5034118;28;20453;-76
2023/09/10 03:58:38;;;;;;;14.70;13.27;;;30.10;51.20;;;;;;5034461;28;20541;-76
2023/09/10 04:01:09;;;;;;;14.80;13.40;;;30.10;51.30;;;;;;5034455;28;20467;-76
2023/09/10 04:03:37;;;;;;;13.70;12.30;;;30.10;51.30;;;;;;5034543;28;20426;-76
2023/09/10 04:06:07;;;;;;;13.23;12.00;;;30.10;51.30;;;;;;5034382;28;20421;-76
2023/09/10 04:08:36;;;;;;;13.93;12.63;;;30.10;51.30;;;;;;5034193;28;20422;-76
2023/09/10 04:11:06;;;;;;;14.67;13.10;;;30.10;51.30;;;;;;5034586;28;20442;-77
2023/09/10 04:13:34;;;;;;;13.70;12.40;;;30.00;51.40;;;;;;5034525;28;20505;-77
2023/09/10 04:16:03;;;;;;;13.57;12.27;;;30.00;51.50;;;;;;5034324;28;20876;-77
2023/09/10 04:18:34;;;;;;;13.63;12.33;;;30.00;51.40;;;;;;5033939;28;20450;-76
2023/09/10 04:21:04;;;;;;;13.77;12.47;;;30.00;51.50;;;;;;5034776;28;20494;-76
2023/09/10 04:23:32;;;;;;;13.37;12.13;;;30.00;51.50;;;;;;5034840;28;20841;-76
2023/09/10 04:26:00;;;;;;;12.80;11.60;;;30.00;51.60;;;;;;5034025;28;20816;-76
2023/09/10 04:28:28;;;;;;;12.77;11.60;;;29.90;51.60;;;;;;5033496;28;20534;-74
2023/09/10 04:30:56;;;;;;;12.63;11.33;;;29.90;51.60;;;;;;5033646;28;20551;-76
2023/09/10 04:33:24;;;;;;;13.30;12.10;;;29.90;51.60;;;;;;5033034;28;20447;-76
2023/09/10 04:35:57;;;;;;;12.17;11.07;;;29.90;51.60;;;;;;5033221;28;20530;-76
2023/09/10 04:38:25;;;;;;;12.07;10.97;;;29.80;51.70;;;;;;5033397;28;20971;-77
2023/09/10 04:40:53;;;;;;;12.47;11.37;;;29.90;51.70;;;;;;5031429;28;20502;-76
2023/09/10 04:43:20;;;;;;;12.90;11.60;;;29.80;51.50;;;;;;5033130;28;20440;-75
2023/09/10 04:45:48;;;;;;;11.67;10.67;;;29.80;51.60;;;;;;5033238;28;20454;-77
2023/09/10 04:48:17;;;;;;;12.53;11.33;;;29.80;51.60;;;;;;5033439;28;20417;-76
2023/09/10 04:50:45;;;;;;;11.37;10.40;;;29.80;51.70;;;;;;5033200;28;20446;-76
2023/09/10 04:53:15;;;;;;;12.50;11.30;;;29.80;51.70;;;;;;5033108;28;20438;-76
2023/09/10 04:55:42;;;;;;;11.67;10.67;;;29.80;51.70;;;;;;5031862;28;20406;-77
2023/09/10 04:58:12;;;;;;;11.73;10.73;;;29.80;51.80;;;;;;5033183;28;20486;-77
2023/09/10 05:00:40;;;;;;;11.20;10.27;;;29.70;51.70;;;;;;5033305;28;20470;-77
2023/09/10 05:03:09;;;;;;;11.67;10.67;;;29.70;51.90;;;;;;5032954;28;20448;-77
2023/09/10 05:05:37;;;;;;;10.83;9.83;;;29.70;51.90;;;;;;5032832;28;20496;-76
2023/09/10 05:08:05;;;;;;;11.10;10.10;;;29.70;51.90;;;;;;5032752;28;20414;-77
2023/09/10 05:10:34;;;;;;;10.77;9.80;;;29.70;51.80;;;;;;5032864;28;20459;-76
2023/09/10 05:13:02;;;;;;;11.00;10.00;;;29.70;51.80;;;;;;5032810;28;20422;-77
2023/09/10 05:15:31;;;;;;;10.70;9.80;;;29.70;51.80;;;;;;5032931;28;20497;-76
2023/09/10 05:17:59;;;;;;;10.40;9.50;;;29.70;51.70;;;;;;5032854;28;20495;-77
2023/09/10 05:20:28;;;;;;;10.70;9.60;;;29.70;51.80;;;;;;5032427;28;20449;-77
2023/09/10 05:22:56;;;;;;;10.40;9.37;;;29.70;51.80;;;;;;5032669;28;20526;-76
2023/09/10 05:25:24;;;;;;;10.80;9.80;;;29.60;51.80;;;;;;5032871;28;20421;-75
2023/09/10 05:27:53;;;;;;;10.10;9.23;;;29.60;52.00;;;;;;5032460;28;20526;-77
2023/09/10 05:30:22;;;;;;;10.30;9.40;;;29.70;52.00;;;;;;5032775;28;20437;-77
2023/09/10 05:32:49;;;;;;;10.27;9.37;;;29.60;51.80;;;;;;5032159;28;20426;-77
2023/09/10 05:35:18;;;;;;;9.80;9.00;;;29.60;52.00;;;;;;5031700;28;20444;-75
2023/09/10 05:37:46;;;;;;;9.53;8.80;;;29.60;52.00;;;;;;5032109;28;20478;-75
2023/09/10 05:40:15;;;;;;;10.73;9.77;;;29.60;52.00;;;;;;5032122;28;20457;-77
2023/09/10 05:42:44;;;;;;;9.80;8.90;;;29.60;51.90;;;;;;5032442;28;20432;-77
2023/09/10 05:45:14;;;;;;;9.97;9.17;;;29.60;52.00;;;;;;5032461;28;20438;-77
2023/09/10 05:47:42;;;;;;;10.57;9.63;;;29.60;52.00;;;;;;5032632;28;20423;-77
2023/09/10 05:50:11;;;;;;;9.60;8.80;;;29.60;52.50;;;;;;5031279;28;20845;-77
2023/09/10 05:52:39;;;;;;;8.93;8.23;;;29.60;51.80;;;;;;5031891;28;20474;-77
2023/09/10 05:55:08;;;;;;;10.07;9.17;;;29.60;52.00;;;;;;5031865;28;20433;-77
2023/09/10 05:57:36;;;;;;;9.60;8.80;;;29.50;51.90;;;;;;5032725;28;20518;-78
2023/09/10 06:00:04;;;;;;;9.03;8.33;;;29.50;52.20;;;;;;5032609;28;20550;-76
2023/09/10 06:02:33;;;;;;;9.47;8.67;;;29.50;52.10;;;;;;5031838;28;20454;-77
2023/09/10 06:05:02;;;;;;;10.17;9.27;;;29.60;52.10;;;;;;5031958;28;20448;-77
2023/09/10 06:07:30;;;;;;;8.50;7.83;;;29.60;52.10;;;;;;5032037;28;20426;-77
2023/09/10 06:09:59;;;;;;;8.53;7.83;;;29.60;51.90;;;;;;5031990;28;20465;-77
2023/09/10 06:12:27;;;;;;;8.57;7.90;;;29.60;52.20;;;;;;5031798;28;20450;-77
2023/09/10 06:14:55;;;;;;;9.17;8.47;;;29.50;51.90;;;;;;5031824;28;20445;-76
2023/09/10 06:17:23;;;;;;;8.70;8.00;;;29.60;51.90;;;;;;5031478;28;20439;-78
2023/09/10 06:19:53;;;;;;;8.53;7.83;;;29.50;52.40;;;;;;5031119;28;20558;-78
2023/09/10 06:22:21;;;;;;;9.00;8.30;;;29.50;52.20;;;;;;5031134;28;20852;-78
2023/09/10 06:24:49;;;;;;;8.67;7.97;;;29.60;52.00;;;;;;5031635;28;20455;-78
2023/09/10 06:27:17;;;;;;;7.73;7.13;;;29.50;52.30;;;;;;5031733;28;20457;-78
2023/09/10 06:29:45;;;;;;;8.83;8.13;;;29.50;51.90;;;;;;5031859;28;20484;-78
2023/09/10 06:32:13;;;;;;;8.40;7.60;;;29.50;52.20;;;;;;5031841;28;20517;-77
2023/09/10 06:34:41;;;;;;;8.37;7.67;;;29.60;52.20;;;;;;5031741;28;20450;-77
2023/09/10 06:37:11;;;;;;;7.80;7.10;;;29.60;52.10;;;;;;5031905;28;20433;-77
2023/09/10 06:39:39;;;;;;;8.27;7.57;;;29.60;52.00;;;;;;5030717;28;20450;-78
2023/09/10 06:42:08;;;;;;;7.43;6.93;;;29.60;52.10;;;;;;5031640;28;20471;-78
2023/09/10 06:44:38;;;;;;;7.63;7.03;;;29.60;52.20;;;;;;5031592;28;20441;-77
2023/09/10 06:47:06;;;;;;;8.10;7.50;;;29.60;52.30;;;;;;5031470;28;20507;-77
2023/09/10 06:49:35;;;;;;;8.20;7.60;;;29.60;52.00;;;;;;5030914;28;20418;-77
2023/09/10 06:52:04;;;;;;;8.17;7.57;;;29.60;52.10;;;;;;5032017;28;20457;-77
2023/09/10 06:54:35;;;;;;;7.60;7.00;;;29.60;52.10;;;;;;5031683;28;20527;-78
2023/09/10 06:57:03;;;;;;;7.70;7.10;;;29.60;52.00;;;;;;5031630;28;20436;-78
2023/09/10 06:59:32;;;;;;;7.40;6.90;;;29.60;52.20;;;;;;5031408;28;20481;-79
2023/09/10 07:02:00;;;;;;;7.90;7.30;;;29.60;52.00;;;;;;5031069;28;20535;-78
2023/09/10 07:04:28;;;;;;;7.80;7.20;;;29.60;52.60;;;;;;5034001;28;20410;-77
2023/09/10 07:06:56;;;;;;;7.27;6.77;;;29.60;52.20;;;;;;5036420;28;20522;-78
2023/09/10 07:09:24;;;;;;;7.43;6.83;;;29.70;51.90;;;;;;5036031;28;20844;-77
2023/09/10 07:11:55;;;;;;;7.70;7.10;;;29.70;52.00;;;;;;5036396;28;20562;-77
2023/09/10 07:14:23;;;;;;;7.53;7.00;;;29.70;52.00;;;;;;5035193;28;20451;-75
2023/09/10 07:16:52;;;;;;;7.30;6.70;;;29.60;52.00;;;;;;5035326;28;20447;-76
2023/09/10 07:19:20;;;;;;;7.03;6.53;;;29.60;52.00;;;;;;5036266;28;20498;-78
2023/09/10 07:21:48;;;;;;;6.53;6.13;;;29.70;52.20;;;;;;5037084;28;20464;-77
2023/09/10 07:24:16;;;;;;;7.10;6.60;;;29.70;52.00;;;;;;5037080;28;20447;-78
2023/09/10 07:26:45;;;;;;;6.80;6.30;;;29.70;52.00;;;;;;5037493;28;20482;-78
2023/09/10 07:29:16;;;;;;;6.67;6.23;;;29.70;52.20;;;;;;5035924;28;20426;-78
2023/09/10 07:31:44;;;;;;;6.77;6.27;;;29.70;52.40;;;;;;5038209;28;20554;-77
2023/09/10 07:34:14;;;;;;;7.03;6.53;;;29.70;52.20;;;;;;5051627;28;20451;-78
2023/09/10 07:36:44;;;;;;;6.60;6.20;;;29.70;52.20;;;;;;5053245;28;20422;-78
2023/09/10 07:39:11;;;;;;;9.33;6.17;;;29.70;52.10;;;;;;5053189;28;20475;-78
2023/09/10 07:41:39;;;;;;;6.70;6.27;;;29.80;52.20;;;;;;5050975;28;20459;-77
2023/09/10 07:44:07;;;;;;;6.73;6.30;;;29.80;52.10;;;;;;5040455;28;20485;-77
2023/09/10 07:46:37;;;;;;;6.50;6.00;;;29.90;52.20;;;;;;5035613;28;20439;-77
2023/09/10 07:49:05;;;;;;;6.60;6.20;;;29.90;52.10;;;;;;5035257;28;20507;-78
2023/09/10 07:51:33;;;;;;;6.33;5.93;;;30.00;52.20;;;;;;5035505;28;20463;-77
2023/09/10 07:54:01;;;;;;;5.73;5.37;;;30.00;52.00;;;;;;5035165;28;20439;-77
2023/09/10 07:56:30;;;;;;;6.00;5.70;;;30.00;52.00;;;;;;5034810;28;20481;-78
2023/09/10 07:58:58;;;;;;;6.13;5.73;;;30.10;51.90;;;;;;5034817;28;20477;-77
2023/09/10 08:01:26;;;;;;;6.00;5.60;;;30.10;51.80;;;;;;5035571;28;20455;-77
2023/09/10 08:03:56;;;;;;;5.77;5.47;;;30.20;51.90;;;;;;5034811;28;20456;-77
2023/09/10 08:06:24;;;;;;;6.20;5.80;;;30.30;51.80;;;;;;5034757;28;20468;-78
2023/09/10 08:08:53;;;;;;;6.40;6.00;;;30.40;51.80;;;;;;5034513;28;20553;-76
2023/09/10 08:11:22;;;;;;;5.20;4.90;;;30.50;51.70;;;;;;5038689;28;20533;-79
2023/09/10 08:13:51;;;;;;;5.93;5.63;;;30.60;51.50;;;;;;5037474;28;20451;-76
2023/09/10 08:16:20;;;;;;;5.47;5.17;;;30.70;51.60;;;;;;5041261;28;20451;-76
2023/09/10 08:18:48;;;;;;;5.37;5.10;;;30.80;51.40;;;;;;5038718;28;20447;-79
2023/09/10 08:21:19;;;;;;;5.70;5.30;;;30.90;51.20;;;;;;5037035;28;20455;-78
2023/09/10 08:23:48;;;;;;;5.53;5.23;;;31.10;51.20;;;;;;5043741;28;20447;-78
2023/09/10 08:26:17;;;;;;;5.20;4.90;;;31.30;50.90;;;;;;5034030;28;20514;-78
2023/09/10 08:28:45;;;;;;;5.00;4.70;;;31.40;50.70;;;;;;5034301;28;20478;-78
2023/09/10 08:31:14;;;;;;;4.90;4.60;;;31.60;50.60;;;;;;5033777;28;20470;-77
2023/09/10 08:33:42;;;;;;;5.13;4.87;;;31.80;50.40;;;;;;5033810;28;20444;-76
2023/09/10 08:36:11;;;;;;;4.63;4.43;;;32.00;50.20;;;;;;5034132;28;20443;-77
2023/09/10 08:38:41;;;;;;;4.83;4.63;;;32.20;49.80;;;;;;5033504;28;20597;-75
2023/09/10 08:41:13;;;;;;;4.97;4.77;;;32.40;49.70;;;;;;5017579;28;20476;-77
2023/09/10 08:43:46;;;;;;;4.70;4.50;;;32.60;49.50;;;;;;5013706;28;20456;-77
2023/09/10 08:46:15;;;;;;;5.40;5.00;;;32.70;49.10;;;;;;5013966;28;20452;-77
2023/09/10 08:48:44;;;;;;;5.40;5.00;;;32.90;49.10;;;;;;5014271;28;20441;-78
2023/09/10 08:51:12;;;;;;;5.20;4.90;;;33.00;48.80;;;;;;5013835;28;20456;-77
2023/09/10 08:53:43;;;;;;;4.70;4.50;;;33.20;48.80;;;;;;4999025;28;20449;-77
2023/09/10 08:56:11;;;;;;;4.70;4.50;;;33.30;48.60;;;;;;4995849;28;20456;-77
2023/09/10 08:58:39;;;;;;;4.90;4.70;;;33.40;48.40;;;;;;4994744;28;20468;-78
2023/09/10 09:01:09;;;;;;;4.50;4.30;;;33.60;48.20;;;;;;4996089;28;20481;-75
2023/09/10 09:03:37;;;;;;;4.43;4.23;;;33.80;48.10;;;;;;4996463;28;20445;-77
2023/09/10 09:06:06;;;;;;;4.70;4.50;;;33.90;48.00;;;;;;4996973;28;20449;-78
2023/09/10 09:08:37;;;;;;;3.93;3.83;;;34.10;47.70;;;;;;4996443;28;20535;-76
2023/09/10 09:11:11;;;;;;;4.47;4.27;;;34.20;47.60;;;;;;4996619;28;20482;-76
2023/09/10 09:13:42;;;;;;;4.47;4.37;;;34.40;47.50;;;;;;4999652;28;20527;-76
2023/09/10 09:16:10;;;;;;;3.90;3.80;;;34.50;47.20;;;;;;5000680;28;20452;-79
2023/09/10 09:18:41;;;;;;;4.30;4.10;;;34.60;47.10;;;;;;5001256;28;20473;-77
2023/09/10 09:21:12;;;;;;;4.20;4.10;;;34.80;47.10;;;;;;4995132;28;20488;-78
2023/09/10 09:23:46;;;;;;;4.13;4.03;;;34.90;46.80;;;;;;4995038;28;20580;-80
2023/09/10 09:26:16;;;;;;;4.13;4.03;;;35.10;46.60;;;;;;4996853;28;20453;-77
2023/09/10 09:28:45;;;;;;;4.20;4.00;;;35.30;46.40;;;;;;4996158;28;20437;-77
2023/09/10 09:31:13;;;;;;;3.60;3.50;;;35.40;46.20;;;;;;4994780;28;20457;-77
2023/09/10 09:33:44;;;;;;;3.97;3.87;;;35.50;46.10;;;;;;4993918;28;20453;-78
2023/09/10 09:36:13;;;;;;;3.60;3.50;;;35.70;45.90;;;;;;4995756;28;20479;-79
2023/09/10 09:38:42;;;;;;;3.83;3.73;;;35.90;45.70;;;;;;4996358;28;20453;-78
2023/09/10 09:41:11;;;;;;;3.47;3.37;;;36.00;45.60;;;;;;5045012;23;20490;-79
2023/09/10 09:43:40;;;;;;;3.30;3.20;;;36.20;45.40;;;;;;5052500;28;20449;-77
2023/09/10 09:46:08;;;;;;;3.67;3.57;;;36.30;45.20;;;;;;5053141;28;20438;-78
2023/09/10 09:48:36;;;;;;;3.40;3.30;;;36.50;45.00;;;;;;5052517;28;20442;-78
2023/09/10 09:51:06;;;;;;;3.63;3.53;;;36.70;44.90;;;;;;5052534;28;20459;-78
2023/09/10 09:53:34;;;;;;;3.67;3.57;;;36.80;44.60;;;;;;5052887;28;20472;-76
2023/09/10 09:56:04;;;;;;;3.90;3.80;;;37.00;44.40;;;;;;5053063;28;20451;-77
2023/09/10 09:58:32;;;;;;;3.60;3.50;;;37.10;44.20;;;;;;5052544;28;20454;-78
2023/09/10 10:01:01;;;;;;;3.30;3.20;;;37.30;44.00;;;;;;5052069;28;20478;-79
2023/09/10 10:03:31;;;;;;;3.47;3.37;;;37.40;43.80;;;;;;5052940;28;20508;-78
2023/09/10 10:05:59;;;;;;;3.03;3.03;;;37.60;43.70;;;;;;5052447;28;20450;-76
2023/09/10 10:08:28;;;;;;;3.40;3.30;;;37.70;43.50;;;;;;5051502;28;20446;-77
2023/09/10 10:10:58;;;;;;;3.23;3.13;;;37.90;43.30;;;;;;5051617;28;20451;-77
2023/09/10 10:13:26;;;;;;;2.90;2.90;;;38.00;43.10;;;;;;5051865;28;20450;-78
2023/09/10 10:15:55;;;;;;;2.97;2.87;;;38.10;42.90;;;;;;5051638;28;20529;-77
2023/09/10 10:18:26;;;;;;;3.30;3.20;;;38.30;42.70;;;;;;5051952;28;20457;-78
2023/09/10 10:20:58;;;;;;;3.13;3.03;;;38.40;42.50;;;;;;5051775;28;20482;-77
2023/09/10 10:23:26;;;;;;;3.20;3.10;;;38.60;42.40;;;;;;5051805;28;20466;-78
2023/09/10 10:25:55;;;;;;;2.70;2.60;;;38.80;42.30;;;;;;5051495;28;20457;-78
2023/09/10 10:28:23;;;;;;;3.03;2.93;;;38.80;42.00;;;;;;5052566;28;20434;-79
2023/09/10 10:30:53;;;;;;;3.00;3.00;;;39.00;41.90;;;;;;5052793;28;20558;-80
2023/09/10 10:33:22;;;;;;;2.73;2.73;;;39.20;41.70;;;;;;5053451;28;20439;-78
2023/09/10 10:36:00;;;;;;;2.70;2.70;;;39.30;41.50;;;;;;5054989;28;20434;-80
2023/09/10 10:38:28;;;;;;;2.73;2.63;;;39.40;41.40;;;;;;5054530;28;20469;-80
2023/09/10 10:40:56;;;;;;;2.60;2.60;;;39.60;41.20;;;;;;5054750;28;20478;-79
2023/09/10 10:43:26;;;;;;;3.10;3.00;;;39.70;41.10;;;;;;5054630;28;20493;-80
2023/09/10 10:45:55;;;;;;;2.90;2.90;;;39.80;40.90;;;;;;5054556;28;20976;-80
2023/09/10 10:48:25;;;;;;;2.30;2.30;;;39.90;40.70;;;;;;5054836;28;20447;-81
2023/09/10 10:50:56;;;;;;;2.77;2.77;;;40.10;40.50;;;;;;5054160;28;20465;-80
2023/09/10 10:53:25;;;;;;;2.50;2.50;;;40.20;40.40;;;;;;5053615;28;20454;-78
2023/09/10 10:55:55;;;;;;;2.57;2.57;;;40.40;40.30;;;;;;5051459;28;20517;-79
2023/09/10 10:58:27;;;;;;;2.63;2.63;;;40.50;40.20;;;;;;5051328;28;20474;-79
2023/09/10 11:00:59;;;;;;;2.60;2.60;;;40.60;39.90;;;;;;5050998;28;20474;-79
2023/09/10 11:03:28;;;;;;;2.40;2.40;;;40.70;39.70;;;;;;5051161;28;20529;-78
2023/09/10 11:06:08;;;;;;;2.30;2.20;;;40.90;39.70;;;;;;5051212;28;20526;-80
2023/09/10 11:08:37;;;;;;;2.80;2.63;;;41.00;39.50;;;;;;5051383;28;20875;-82
2023/09/10 11:11:09;;;;;;;2.50;2.40;;;41.10;39.40;;;;;;5050971;28;20508;-78
2023/09/10 11:13:59;;;;;;;2.30;2.30;;;41.20;39.20;;;;;;5051025;28;20448;-78
2023/09/10 11:16:30;;;;;;;2.37;2.27;;;41.40;39.20;;;;;;5053752;28;20450;-81
2023/09/10 11:18:58;;;;;;;2.37;2.37;;;41.50;39.00;;;;;;5057270;28;20461;-79
2023/09/10 11:22:03;;;;;;;2.20;2.20;;;41.60;38.80;;;;;;5056912;28;20545;-80
2023/09/10 11:24:34;;;;;;;2.50;2.50;;;41.70;38.70;;;;;;5056523;28;20528;-80
2023/09/10 11:27:22;;;;;;;2.30;2.30;;;41.90;38.60;;;;;;5056338;28;20446;-80
2023/09/10 11:30:07;;;;;;;2.40;2.40;;;42.00;38.40;;;;;;5057013;28;20477;-78
2023/09/10 11:32:36;;;;;;;2.03;2.03;;;42.00;38.20;;;;;;5056928;28;20472;-80
2023/09/10 11:35:23;;;;;;;2.40;2.40;;;42.10;38.20;;;;;;5056815;28;20975;-81
2023/09/10 11:37:55;;;;;;;2.20;2.20;;;42.20;38.10;;;;;;5056157;28;20450;-81
2023/09/10 11:40:24;;;;;;;2.10;2.10;;;42.30;38.00;;;;;;5056274;28;20529;-81
2023/09/10 11:42:53;;;;;;;2.30;2.30;;;42.40;37.90;;;;;;5057051;28;21351;-81
2023/09/10 11:45:23;;;;;;;2.30;2.30;;;42.40;37.80;;;;;;5056558;28;20484;-81
2023/09/10 11:47:51;;;;;;;2.50;2.40;;;42.60;37.80;;;;;;5055502;28;20426;-81
2023/09/10 11:50:24;;;;;;;2.10;2.10;;;42.70;37.70;;;;;;5057178;28;20449;-81
2023/09/10 11:52:57;;;;;;;2.30;2.30;;;42.70;37.50;;;;;;5059822;28;20464;-82
2023/09/10 11:55:26;;;;;;;2.40;2.40;;;42.90;37.60;;;;;;5060075;28;20529;-80
2023/09/10 11:57:54;;;;;;;2.13;2.13;;;42.90;37.40;;;;;;5059352;28;20446;-80
2023/09/10 12:00:23;;;;;;;2.23;2.23;;;43.00;37.30;;;;;;5058282;28;20489;-82
2023/09/10 12:02:51;;;;;;;2.40;2.40;;;43.10;37.20;;;;;;5057755;28;20470;-80
2023/09/10 12:05:20;;;;;;;2.40;2.40;;;43.20;37.10;;;;;;5057966;28;20467;-81
2023/09/10 12:07:49;;;;;;;2.10;2.10;;;43.20;37.00;;;;;;5058170;28;20437;-81
2023/09/10 12:10:19;;;;;;;2.30;2.20;;;43.20;36.80;;;;;;5058558;28;20537;-81
2023/09/10 12:12:48;;;;;;;2.00;1.90;;;43.30;36.70;;;;;;5066132;28;20434;-79
2023/09/10 12:15:16;;;;;;;2.30;2.30;;;43.40;36.70;;;;;;5061113;28;20438;-80
2023/09/10 12:17:44;;;;;;;2.30;2.30;;;43.40;36.60;;;;;;5059387;28;20533;-81
2023/09/10 12:20:12;;;;;;;2.17;2.07;;;43.50;36.60;;;;;;5059969;28;20438;-84
2023/09/10 12:22:40;;;;;;;2.10;2.10;;;43.50;36.50;;;;;;5059538;28;20474;-82
2023/09/10 12:25:09;;;;;;;2.00;2.00;;;43.60;36.40;;;;;;5059165;28;20438;-81
2023/09/10 12:27:38;;;;;;;2.23;2.23;;;43.60;36.40;;;;;;5059361;28;20458;-80
2023/09/10 12:30:08;;;;;;;2.10;2.10;;;43.70;36.40;;;;;;5059821;28;20937;-81
2023/09/10 12:32:36;;;;;;;2.13;2.13;;;43.70;36.40;;;;;;5059133;28;20434;-81
2023/09/10 12:35:06;;;;;;;2.03;2.03;;;43.70;36.30;;;;;;5058073;28;20461;-80
2023/09/10 12:37:33;;;;;;;2.30;2.30;;;43.80;36.20;;;;;;5058932;28;20525;-80
2023/09/10 12:40:02;;;;;;;2.10;2.10;;;43.90;36.20;;;;;;5058091;28;20438;-81
2023/09/10 12:42:29;;;;;;;2.10;2.10;;;43.90;36.10;;;;;;5057849;28;20493;-80
2023/09/10 12:45:00;;;;;;;1.90;1.80;;;43.90;36.00;;;;;;5057982;28;20514;-80
2023/09/10 12:47:28;;;;;;;2.37;2.30;;;43.90;35.90;;;;;;5059191;28;20438;-81
2023/09/10 12:49:58;;;;;;;2.10;2.10;;;43.90;36.00;;;;;;5057854;28;20978;-81
2023/09/10 12:52:26;;;;;;;2.33;2.23;;;44.00;36.00;;;;;;5057964;28;20464;-79